Arbon, Idaho
Current Conditions -  °F | °C
As of 6:53 PM on Friday 21 Nov 2014 (Local Time) from KPIH Reporting Station
Clear Clear  
Wind Chill: 22°   Ceiling: Unl
Heat Index: 28°   Visibility: 10mi
Dew Point: 26°   Wind: 6mph
Humidity: 92%   Direction: 160°SSE
Pressure: 29.94"   Gusts: NA
Location:  42.46°N, 112.57°W
Report Text: KPIH 220153Z 16005KT 10SM CLR M02/M03 A2994 RMK AO2 SLP174 T10221033
Loading
Personal Weather Stations






























Interactive Weather Map New forecast layout! Learn more

10-Day Weather Forecast

Advertisements
Track Severe Weather on mobile